sensor_id;sensor_type;location;lat;lon;timestamp;P1;durP1;ratioP1;P2;durP2;ratioP2
72373;SDS011;60349;64.132;-21.820;2023-02-08T00:00:39;15.85;;;5.47;;
72373;SDS011;60349;64.132;-21.820;2023-02-08T00:03:05;16.52;;;5.85;;
72373;SDS011;60349;64.132;-21.820;2023-02-08T00:05:32;14.40;;;5.28;;
72373;SDS011;60349;64.132;-21.820;2023-02-08T00:07:58;9.73;;;4.53;;
72373;SDS011;60349;64.132;-21.820;2023-02-08T00:10:24;8.15;;;3.40;;
72373;SDS011;60349;64.132;-21.820;2023-02-08T00:12:50;8.30;;;2.70;;
72373;SDS011;60349;64.132;-21.820;2023-02-08T00:15:16;10.10;;;2.08;;
72373;SDS011;60349;64.132;-21.820;2023-02-08T00:17:43;5.82;;;2.20;;
72373;SDS011;60349;64.132;-21.820;2023-02-08T00:20:09;6.75;;;2.10;;
72373;SDS011;60349;64.132;-21.820;2023-02-08T00:22:36;9.55;;;2.13;;
72373;SDS011;60349;64.132;-21.820;2023-02-08T00:25:03;5.43;;;1.23;;
72373;SDS011;60349;64.132;-21.820;2023-02-08T00:27:29;5.65;;;1.63;;
72373;SDS011;60349;64.132;-21.820;2023-02-08T00:29:56;5.65;;;1.60;;
72373;SDS011;60349;64.132;-21.820;2023-02-08T00:32:22;5.25;;;1.13;;
72373;SDS011;60349;64.132;-21.820;2023-02-08T00:34:48;3.53;;;0.60;;
72373;SDS011;60349;64.132;-21.820;2023-02-08T00:37:14;4.15;;;0.80;;
72373;SDS011;60349;64.132;-21.820;2023-02-08T00:39:40;3.83;;;0.70;;
72373;SDS011;60349;64.132;-21.820;2023-02-08T00:42:06;4.10;;;0.47;;
72373;SDS011;60349;64.132;-21.820;2023-02-08T00:44:32;4.90;;;0.95;;
72373;SDS011;60349;64.132;-21.820;2023-02-08T00:46:58;3.05;;;0.40;;
72373;SDS011;60349;64.132;-21.820;2023-02-08T00:49:25;5.10;;;0.50;;
72373;SDS011;60349;64.132;-21.820;2023-02-08T00:51:51;4.05;;;0.40;;
72373;SDS011;60349;64.132;-21.820;2023-02-08T00:54:17;5.68;;;0.68;;
72373;SDS011;60349;64.132;-21.820;2023-02-08T00:56:44;5.70;;;1.02;;
72373;SDS011;60349;64.132;-21.820;2023-02-08T00:59:10;10.20;;;3.70;;
72373;SDS011;60349;64.132;-21.820;2023-02-08T01:01:37;17.65;;;5.63;;
72373;SDS011;60349;64.132;-21.820;2023-02-08T01:04:04;10.43;;;3.60;;
72373;SDS011;60349;64.132;-21.820;2023-02-08T01:06:30;12.13;;;4.20;;
72373;SDS011;60349;64.132;-21.820;2023-02-08T01:08:56;12.05;;;4.03;;
72373;SDS011;60349;64.132;-21.820;2023-02-08T01:11:23;5.32;;;2.22;;
72373;SDS011;60349;64.132;-21.820;2023-02-08T01:13:52;7.78;;;2.45;;
72373;SDS011;60349;64.132;-21.820;2023-02-08T01:16:23;13.95;;;2.17;;
72373;SDS011;60349;64.132;-21.820;2023-02-08T01:18:50;9.00;;;2.42;;
72373;SDS011;60349;64.132;-21.820;2023-02-08T01:21:20;7.60;;;1.75;;
72373;SDS011;60349;64.132;-21.820;2023-02-08T01:23:47;6.85;;;1.10;;
72373;SDS011;60349;64.132;-21.820;2023-02-08T01:26:15;6.45;;;1.40;;
72373;SDS011;60349;64.132;-21.820;2023-02-08T01:28:41;10.02;;;1.65;;
72373;SDS011;60349;64.132;-21.820;2023-02-08T01:31:18;5.07;;;0.90;;
72373;SDS011;60349;64.132;-21.820;2023-02-08T01:33:44;5.15;;;0.70;;
72373;SDS011;60349;64.132;-21.820;2023-02-08T01:36:10;8.57;;;0.95;;
72373;SDS011;60349;64.132;-21.820;2023-02-08T01:38:37;4.30;;;0.63;;
72373;SDS011;60349;64.132;-21.820;2023-02-08T01:41:04;5.57;;;0.52;;
72373;SDS011;60349;64.132;-21.820;2023-02-08T01:43:32;3.83;;;0.75;;
72373;SDS011;60349;64.132;-21.820;2023-02-08T01:45:58;4.32;;;0.57;;
72373;SDS011;60349;64.132;-21.820;2023-02-08T01:48:26;8.48;;;0.90;;
72373;SDS011;60349;64.132;-21.820;2023-02-08T01:50:58;5.50;;;1.05;;
72373;SDS011;60349;64.132;-21.820;2023-02-08T01:53:25;8.20;;;0.90;;
72373;SDS011;60349;64.132;-21.820;2023-02-08T01:55:55;6.38;;;1.10;;
72373;SDS011;60349;64.132;-21.820;2023-02-08T01:58:22;8.90;;;1.17;;
72373;SDS011;60349;64.132;-21.820;2023-02-08T02:00:49;8.85;;;0.90;;
72373;SDS011;60349;64.132;-21.820;2023-02-08T02:03:15;5.05;;;1.02;;
72373;SDS011;60349;64.132;-21.820;2023-02-08T02:05:44;9.23;;;1.42;;
72373;SDS011;60349;64.132;-21.820;2023-02-08T02:08:11;5.65;;;0.88;;
72373;SDS011;60349;64.132;-21.820;2023-02-08T02:10:37;5.60;;;0.77;;
72373;SDS011;60349;64.132;-21.820;2023-02-08T02:13:12;4.57;;;0.98;;
72373;SDS011;60349;64.132;-21.820;2023-02-08T02:18:05;2.70;;;0.50;;
72373;SDS011;60349;64.132;-21.820;2023-02-08T02:28:41;2.25;;;0.30;;
72373;SDS011;60349;64.132;-21.820;2023-02-08T02:36:32;2.25;;;0.20;;
72373;SDS011;60349;64.132;-21.820;2023-02-08T02:41:38;2.38;;;0.28;;
72373;SDS011;60349;64.132;-21.820;2023-02-08T02:44:32;3.22;;;0.20;;
72373;SDS011;60349;64.132;-21.820;2023-02-08T02:47:21;2.17;;;0.50;;
72373;SDS011;60349;64.132;-21.820;2023-02-08T02:50:31;2.80;;;0.10;;
72373;SDS011;60349;64.132;-21.820;2023-02-08T02:52:39;2.63;;;0.30;;
72373;SDS011;60349;64.132;-21.820;2023-02-08T02:55:09;5.05;;;0.70;;
72373;SDS011;60349;64.132;-21.820;2023-02-08T02:57:38;2.03;;;0.10;;
72373;SDS011;60349;64.132;-21.820;2023-02-08T03:00:10;3.33;;;0.10;;
72373;SDS011;60349;64.132;-21.820;2023-02-08T03:02:38;2.90;;;0.30;;
72373;SDS011;60349;64.132;-21.820;2023-02-08T03:05:05;1.73;;;0.10;;
72373;SDS011;60349;64.132;-21.820;2023-02-08T03:17:51;3.00;;;0.10;;
72373;SDS011;60349;64.132;-21.820;2023-02-08T03:20:27;1.95;;;0.10;;
72373;SDS011;60349;64.132;-21.820;2023-02-08T03:23:05;2.50;;;0.05;;
72373;SDS011;60349;64.132;-21.820;2023-02-08T03:33:38;0.57;;;0.00;;
72373;SDS011;60349;64.132;-21.820;2023-02-08T03:36:15;1.55;;;0.10;;
72373;SDS011;60349;64.132;-21.820;2023-02-08T03:38:45;1.50;;;0.10;;
72373;SDS011;60349;64.132;-21.820;2023-02-08T03:41:19;4.22;;;0.85;;
72373;SDS011;60349;64.132;-21.820;2023-02-08T03:43:49;1.35;;;0.08;;
72373;SDS011;60349;64.132;-21.820;2023-02-08T03:46:21;1.55;;;0.00;;
72373;SDS011;60349;64.132;-21.820;2023-02-08T03:48:50;1.77;;;0.00;;
72373;SDS011;60349;64.132;-21.820;2023-02-08T03:51:16;2.55;;;0.10;;
72373;SDS011;60349;64.132;-21.820;2023-02-08T03:53:43;1.50;;;0.00;;
72373;SDS011;60349;64.132;-21.820;2023-02-08T03:56:14;1.65;;;0.10;;
72373;SDS011;60349;64.132;-21.820;2023-02-08T03:58:52;1.85;;;0.20;;
72373;SDS011;60349;64.132;-21.820;2023-02-08T04:01:26;1.83;;;0.00;;
72373;SDS011;60349;64.132;-21.820;2023-02-08T04:03:54;1.30;;;0.08;;
72373;SDS011;60349;64.132;-21.820;2023-02-08T04:06:21;1.73;;;0.00;;
72373;SDS011;60349;64.132;-21.820;2023-02-08T04:08:47;1.75;;;0.00;;
72373;SDS011;60349;64.132;-21.820;2023-02-08T04:11:13;2.00;;;0.10;;
72373;SDS011;60349;64.132;-21.820;2023-02-08T04:13:40;1.42;;;0.10;;
72373;SDS011;60349;64.132;-21.820;2023-02-08T04:16:06;1.90;;;0.15;;
72373;SDS011;60349;64.132;-21.820;2023-02-08T04:18:32;2.03;;;0.00;;
72373;SDS011;60349;64.132;-21.820;2023-02-08T04:20:58;1.05;;;0.03;;
72373;SDS011;60349;64.132;-21.820;2023-02-08T04:23:24;0.80;;;0.00;;
72373;SDS011;60349;64.132;-21.820;2023-02-08T04:25:50;0.77;;;0.10;;
72373;SDS011;60349;64.132;-21.820;2023-02-08T04:28:16;4.45;;;0.00;;
72373;SDS011;60349;64.132;-21.820;2023-02-08T04:30:42;2.20;;;0.20;;
72373;SDS011;60349;64.132;-21.820;2023-02-08T04:33:08;1.00;;;0.00;;
72373;SDS011;60349;64.132;-21.820;2023-02-08T04:35:37;0.57;;;0.00;;
72373;SDS011;60349;64.132;-21.820;2023-02-08T04:38:03;1.02;;;0.10;;
72373;SDS011;60349;64.132;-21.820;2023-02-08T04:40:29;0.85;;;0.00;;
72373;SDS011;60349;64.132;-21.820;2023-02-08T04:42:55;1.58;;;0.00;;
72373;SDS011;60349;64.132;-21.820;2023-02-08T04:45:22;0.55;;;0.00;;
72373;SDS011;60349;64.132;-21.820;2023-02-08T04:47:49;0.60;;;0.05;;
72373;SDS011;60349;64.132;-21.820;2023-02-08T04:50:15;1.48;;;0.10;;
72373;SDS011;60349;64.132;-21.820;2023-02-08T04:52:41;1.17;;;0.00;;
72373;SDS011;60349;64.132;-21.820;2023-02-08T04:55:07;0.70;;;0.00;;
72373;SDS011;60349;64.132;-21.820;2023-02-08T04:57:33;1.15;;;0.00;;
72373;SDS011;60349;64.132;-21.820;2023-02-08T04:59:59;1.15;;;0.35;;
72373;SDS011;60349;64.132;-21.820;2023-02-08T05:02:26;1.00;;;0.00;;
72373;SDS011;60349;64.132;-21.820;2023-02-08T05:04:52;1.27;;;0.00;;
72373;SDS011;60349;64.132;-21.820;2023-02-08T05:07:18;1.10;;;0.30;;
72373;SDS011;60349;64.132;-21.820;2023-02-08T05:09:44;0.60;;;0.00;;
72373;SDS011;60349;64.132;-21.820;2023-02-08T05:12:10;0.85;;;0.00;;
72373;SDS011;60349;64.132;-21.820;2023-02-08T05:14:36;0.70;;;0.00;;
72373;SDS011;60349;64.132;-21.820;2023-02-08T05:17:03;1.55;;;0.00;;
72373;SDS011;60349;64.132;-21.820;2023-02-08T05:19:29;0.73;;;0.00;;
72373;SDS011;60349;64.132;-21.820;2023-02-08T05:21:55;1.17;;;0.00;;
72373;SDS011;60349;64.132;-21.820;2023-02-08T05:24:21;0.43;;;0.00;;
72373;SDS011;60349;64.132;-21.820;2023-02-08T05:26:47;0.90;;;0.00;;
72373;SDS011;60349;64.132;-21.820;2023-02-08T05:29:13;1.13;;;0.00;;
72373;SDS011;60349;64.132;-21.820;2023-02-08T05:31:39;2.83;;;0.20;;
72373;SDS011;60349;64.132;-21.820;2023-02-08T05:34:05;1.58;;;0.00;;
72373;SDS011;60349;64.132;-21.820;2023-02-08T05:36:31;1.85;;;0.10;;
72373;SDS011;60349;64.132;-21.820;2023-02-08T05:38:57;1.77;;;0.00;;
72373;SDS011;60349;64.132;-21.820;2023-02-08T05:41:24;1.35;;;0.10;;
72373;SDS011;60349;64.132;-21.820;2023-02-08T05:43:50;2.10;;;0.00;;
72373;SDS011;60349;64.132;-21.820;2023-02-08T05:46:16;1.23;;;0.00;;
72373;SDS011;60349;64.132;-21.820;2023-02-08T05:48:42;4.50;;;0.10;;
72373;SDS011;60349;64.132;-21.820;2023-02-08T05:51:08;3.00;;;0.10;;
72373;SDS011;60349;64.132;-21.820;2023-02-08T05:53:34;2.13;;;0.10;;
72373;SDS011;60349;64.132;-21.820;2023-02-08T05:56:01;2.83;;;0.00;;
72373;SDS011;60349;64.132;-21.820;2023-02-08T05:58:27;2.80;;;0.10;;
72373;SDS011;60349;64.132;-21.820;2023-02-08T06:00:54;2.70;;;0.05;;
72373;SDS011;60349;64.132;-21.820;2023-02-08T06:03:20;2.25;;;0.05;;
72373;SDS011;60349;64.132;-21.820;2023-02-08T06:05:46;2.65;;;0.10;;
72373;SDS011;60349;64.132;-21.820;2023-02-08T06:08:12;2.78;;;0.35;;
72373;SDS011;60349;64.132;-21.820;2023-02-08T06:10:39;1.98;;;0.00;;
72373;SDS011;60349;64.132;-21.820;2023-02-08T06:13:05;3.13;;;0.10;;
72373;SDS011;60349;64.132;-21.820;2023-02-08T06:15:31;1.60;;;0.00;;
72373;SDS011;60349;64.132;-21.820;2023-02-08T06:17:57;4.45;;;0.10;;
72373;SDS011;60349;64.132;-21.820;2023-02-08T06:20:23;2.63;;;0.10;;
72373;SDS011;60349;64.132;-21.820;2023-02-08T06:22:49;4.10;;;0.28;;
72373;SDS011;60349;64.132;-21.820;2023-02-08T06:25:15;4.05;;;0.20;;
72373;SDS011;60349;64.132;-21.820;2023-02-08T06:27:42;3.60;;;0.20;;
72373;SDS011;60349;64.132;-21.820;2023-02-08T06:30:08;4.13;;;0.10;;
72373;SDS011;60349;64.132;-21.820;2023-02-08T06:32:34;2.92;;;0.10;;
72373;SDS011;60349;64.132;-21.820;2023-02-08T06:35:00;2.08;;;0.30;;
72373;SDS011;60349;64.132;-21.820;2023-02-08T06:37:26;1.77;;;0.10;;
72373;SDS011;60349;64.132;-21.820;2023-02-08T06:39:53;3.42;;;0.45;;
72373;SDS011;60349;64.132;-21.820;2023-02-08T06:42:19;3.90;;;0.17;;
72373;SDS011;60349;64.132;-21.820;2023-02-08T06:44:45;3.42;;;0.32;;
72373;SDS011;60349;64.132;-21.820;2023-02-08T06:47:14;2.80;;;0.10;;
72373;SDS011;60349;64.132;-21.820;2023-02-08T06:49:40;2.03;;;0.08;;
72373;SDS011;60349;64.132;-21.820;2023-02-08T06:52:06;3.70;;;0.10;;
72373;SDS011;60349;64.132;-21.820;2023-02-08T06:54:32;1.40;;;0.08;;
72373;SDS011;60349;64.132;-21.820;2023-02-08T06:56:58;2.35;;;0.03;;
72373;SDS011;60349;64.132;-21.820;2023-02-08T06:59:24;2.95;;;0.10;;
72373;SDS011;60349;64.132;-21.820;2023-02-08T07:01:50;4.68;;;0.10;;
72373;SDS011;60349;64.132;-21.820;2023-02-08T07:04:16;2.33;;;0.00;;
72373;SDS011;60349;64.132;-21.820;2023-02-08T07:06:43;2.17;;;0.10;;
72373;SDS011;60349;64.132;-21.820;2023-02-08T07:09:09;1.25;;;0.00;;
72373;SDS011;60349;64.132;-21.820;2023-02-08T07:11:35;2.05;;;0.10;;
72373;SDS011;60349;64.132;-21.820;2023-02-08T07:14:01;2.60;;;0.10;;
72373;SDS011;60349;64.132;-21.820;2023-02-08T07:16:27;1.23;;;0.10;;
72373;SDS011;60349;64.132;-21.820;2023-02-08T07:18:53;2.92;;;0.10;;
72373;SDS011;60349;64.132;-21.820;2023-02-08T07:21:19;3.92;;;0.10;;
72373;SDS011;60349;64.132;-21.820;2023-02-08T07:23:45;2.78;;;0.10;;
72373;SDS011;60349;64.132;-21.820;2023-02-08T07:26:12;2.33;;;0.10;;
72373;SDS011;60349;64.132;-21.820;2023-02-08T07:28:41;1.60;;;0.10;;
72373;SDS011;60349;64.132;-21.820;2023-02-08T07:31:09;13.13;;;0.30;;
72373;SDS011;60349;64.132;-21.820;2023-02-08T07:33:35;1.63;;;0.10;;
72373;SDS011;60349;64.132;-21.820;2023-02-08T07:36:02;1.65;;;0.10;;
72373;SDS011;60349;64.132;-21.820;2023-02-08T07:38:29;1.00;;;0.00;;
72373;SDS011;60349;64.132;-21.820;2023-02-08T07:41:06;1.98;;;0.10;;
72373;SDS011;60349;64.132;-21.820;2023-02-08T07:43:33;2.60;;;0.20;;
72373;SDS011;60349;64.132;-21.820;2023-02-08T07:46:10;1.77;;;0.10;;
72373;SDS011;60349;64.132;-21.820;2023-02-08T07:48:36;4.72;;;0.20;;
72373;SDS011;60349;64.132;-21.820;2023-02-08T07:51:03;3.53;;;0.20;;
72373;SDS011;60349;64.132;-21.820;2023-02-08T07:53:29;5.93;;;0.20;;
72373;SDS011;60349;64.132;-21.820;2023-02-08T07:55:55;2.95;;;0.20;;
72373;SDS011;60349;64.132;-21.820;2023-02-08T07:58:21;2.78;;;0.20;;
72373;SDS011;60349;64.132;-21.820;2023-02-08T08:00:48;3.25;;;0.20;;
72373;SDS011;60349;64.132;-21.820;2023-02-08T08:03:14;5.00;;;0.22;;
72373;SDS011;60349;64.132;-21.820;2023-02-08T08:05:40;6.53;;;0.20;;
72373;SDS011;60349;64.132;-21.820;2023-02-08T08:08:07;4.70;;;1.23;;
72373;SDS011;60349;64.132;-21.820;2023-02-08T08:10:34;14.95;;;5.70;;
72373;SDS011;60349;64.132;-21.820;2023-02-08T08:13:00;30.88;;;13.40;;
72373;SDS011;60349;64.132;-21.820;2023-02-08T08:15:26;45.35;;;23.48;;
72373;SDS011;60349;64.132;-21.820;2023-02-08T08:17:52;95.43;;;50.05;;
72373;SDS011;60349;64.132;-21.820;2023-02-08T08:20:18;87.45;;;42.60;;
72373;SDS011;60349;64.132;-21.820;2023-02-08T08:22:44;77.38;;;38.30;;
72373;SDS011;60349;64.132;-21.820;2023-02-08T08:25:10;76.75;;;38.83;;
72373;SDS011;60349;64.132;-21.820;2023-02-08T08:27:37;76.03;;;38.03;;
72373;SDS011;60349;64.132;-21.820;2023-02-08T08:30:05;76.50;;;32.40;;
72373;SDS011;60349;64.132;-21.820;2023-02-08T08:32:31;70.53;;;32.90;;
72373;SDS011;60349;64.132;-21.820;2023-02-08T08:34:57;61.15;;;27.58;;
72373;SDS011;60349;64.132;-21.820;2023-02-08T08:37:23;49.65;;;23.98;;
72373;SDS011;60349;64.132;-21.820;2023-02-08T08:39:49;55.42;;;25.23;;
72373;SDS011;60349;64.132;-21.820;2023-02-08T08:42:15;50.08;;;24.02;;
72373;SDS011;60349;64.132;-21.820;2023-02-08T08:44:41;48.88;;;23.85;;
72373;SDS011;60349;64.132;-21.820;2023-02-08T08:47:08;49.10;;;21.70;;
72373;SDS011;60349;64.132;-21.820;2023-02-08T08:49:34;48.20;;;24.80;;
72373;SDS011;60349;64.132;-21.820;2023-02-08T08:52:00;46.80;;;22.50;;
72373;SDS011;60349;64.132;-21.820;2023-02-08T08:54:27;41.70;;;19.65;;
72373;SDS011;60349;64.132;-21.820;2023-02-08T08:56:53;41.45;;;20.92;;
72373;SDS011;60349;64.132;-21.820;2023-02-08T08:59:19;40.40;;;20.77;;
72373;SDS011;60349;64.132;-21.820;2023-02-08T09:01:45;43.40;;;19.90;;
72373;SDS011;60349;64.132;-21.820;2023-02-08T09:04:11;38.35;;;19.05;;
72373;SDS011;60349;64.132;-21.820;2023-02-08T09:06:37;42.50;;;19.70;;
72373;SDS011;60349;64.132;-21.820;2023-02-08T09:09:03;34.13;;;17.70;;
72373;SDS011;60349;64.132;-21.820;2023-02-08T09:11:29;32.17;;;16.67;;
72373;SDS011;60349;64.132;-21.820;2023-02-08T09:13:57;27.98;;;15.77;;
72373;SDS011;60349;64.132;-21.820;2023-02-08T09:16:23;26.95;;;14.23;;
72373;SDS011;60349;64.132;-21.820;2023-02-08T09:18:50;23.75;;;11.57;;
72373;SDS011;60349;64.132;-21.820;2023-02-08T09:21:17;19.35;;;9.93;;
72373;SDS011;60349;64.132;-21.820;2023-02-08T09:23:44;22.25;;;11.40;;
72373;SDS011;60349;64.132;-21.820;2023-02-08T09:26:14;22.83;;;10.40;;
72373;SDS011;60349;64.132;-21.820;2023-02-08T09:28:40;21.75;;;9.70;;
72373;SDS011;60349;64.132;-21.820;2023-02-08T09:31:10;20.95;;;9.77;;
72373;SDS011;60349;64.132;-21.820;2023-02-08T09:33:36;17.45;;;8.93;;
72373;SDS011;60349;64.132;-21.820;2023-02-08T09:36:03;15.85;;;7.95;;
72373;SDS011;60349;64.132;-21.820;2023-02-08T09:38:30;17.98;;;8.88;;
72373;SDS011;60349;64.132;-21.820;2023-02-08T09:46:15;16.00;;;7.20;;
72373;SDS011;60349;64.132;-21.820;2023-02-08T09:48:42;16.45;;;8.23;;
72373;SDS011;60349;64.132;-21.820;2023-02-08T09:53:59;14.93;;;6.38;;
72373;SDS011;60349;64.132;-21.820;2023-02-08T09:56:30;12.57;;;5.95;;
72373;SDS011;60349;64.132;-21.820;2023-02-08T09:59:00;15.02;;;5.97;;
72373;SDS011;60349;64.132;-21.820;2023-02-08T10:01:27;12.40;;;5.95;;
72373;SDS011;60349;64.132;-21.820;2023-02-08T10:03:55;10.77;;;5.75;;
72373;SDS011;60349;64.132;-21.820;2023-02-08T10:06:22;10.32;;;3.72;;
72373;SDS011;60349;64.132;-21.820;2023-02-08T10:08:49;9.13;;;3.83;;
72373;SDS011;60349;64.132;-21.820;2023-02-08T10:14:11;6.53;;;2.83;;
72373;SDS011;60349;64.132;-21.820;2023-02-08T10:24:35;6.78;;;2.97;;
72373;SDS011;60349;64.132;-21.820;2023-02-08T10:36:57;8.05;;;2.38;;
72373;SDS011;60349;64.132;-21.820;2023-02-08T10:39:27;6.72;;;1.92;;
72373;SDS011;60349;64.132;-21.820;2023-02-08T10:41:54;9.00;;;1.88;;
72373;SDS011;60349;64.132;-21.820;2023-02-08T10:44:38;7.50;;;2.00;;
72373;SDS011;60349;64.132;-21.820;2023-02-08T10:47:08;5.53;;;1.05;;
72373;SDS011;60349;64.132;-21.820;2023-02-08T10:52:10;5.28;;;1.02;;
72373;SDS011;60349;64.132;-21.820;2023-02-08T10:54:36;9.15;;;1.40;;
72373;SDS011;60349;64.132;-21.820;2023-02-08T10:57:06;6.53;;;1.10;;
72373;SDS011;60349;64.132;-21.820;2023-02-08T10:59:59;6.78;;;1.13;;
72373;SDS011;60349;64.132;-21.820;2023-02-08T11:02:24;6.03;;;0.75;;
72373;SDS011;60349;64.132;-21.820;2023-02-08T11:07:26;12.55;;;5.20;;
72373;SDS011;60349;64.132;-21.820;2023-02-08T11:09:52;18.60;;;8.35;;
72373;SDS011;60349;64.132;-21.820;2023-02-08T11:12:19;23.40;;;9.25;;
72373;SDS011;60349;64.132;-21.820;2023-02-08T11:14:51;20.98;;;10.52;;
72373;SDS011;60349;64.132;-21.820;2023-02-08T11:17:23;25.33;;;12.68;;
72373;SDS011;60349;64.132;-21.820;2023-02-08T11:19:49;27.52;;;13.00;;
72373;SDS011;60349;64.132;-21.820;2023-02-08T11:22:16;25.27;;;12.82;;
72373;SDS011;60349;64.132;-21.820;2023-02-08T11:24:43;25.55;;;11.63;;
72373;SDS011;60349;64.132;-21.820;2023-02-08T11:27:56;28.42;;;13.18;;
72373;SDS011;60349;64.132;-21.820;2023-02-08T11:32:42;20.23;;;10.60;;
72373;SDS011;60349;64.132;-21.820;2023-02-08T11:37:38;22.80;;;11.93;;
72373;SDS011;60349;64.132;-21.820;2023-02-08T11:40:14;20.00;;;10.80;;
72373;SDS011;60349;64.132;-21.820;2023-02-08T11:42:41;18.95;;;9.85;;
72373;SDS011;60349;64.132;-21.820;2023-02-08T11:45:15;15.93;;;8.00;;
72373;SDS011;60349;64.132;-21.820;2023-02-08T11:47:45;15.32;;;6.80;;
72373;SDS011;60349;64.132;-21.820;2023-02-08T11:50:20;15.65;;;5.68;;
72373;SDS011;60349;64.132;-21.820;2023-02-08T11:52:50;16.35;;;8.57;;
72373;SDS011;60349;64.132;-21.820;2023-02-08T11:58:33;52.22;;;26.42;;
72373;SDS011;60349;64.132;-21.820;2023-02-08T12:00:35;47.38;;;24.60;;
72373;SDS011;60349;64.132;-21.820;2023-02-08T12:03:18;45.75;;;22.00;;
72373;SDS011;60349;64.132;-21.820;2023-02-08T12:08:23;39.35;;;19.40;;
72373;SDS011;60349;64.132;-21.820;2023-02-08T12:11:05;54.28;;;27.38;;
72373;SDS011;60349;64.132;-21.820;2023-02-08T12:21:36;51.53;;;23.63;;
72373;SDS011;60349;64.132;-21.820;2023-02-08T12:34:26;42.50;;;20.10;;
72373;SDS011;60349;64.132;-21.820;2023-02-08T12:39:53;34.33;;;16.15;;
72373;SDS011;60349;64.132;-21.820;2023-02-08T12:42:48;34.15;;;15.57;;
72373;SDS011;60349;64.132;-21.820;2023-02-08T12:55:55;63.15;;;32.08;;
72373;SDS011;60349;64.132;-21.820;2023-02-08T12:58:39;56.42;;;31.48;;
72373;SDS011;60349;64.132;-21.820;2023-02-08T13:01:09;57.10;;;29.70;;
72373;SDS011;60349;64.132;-21.820;2023-02-08T13:03:44;59.30;;;32.05;;
72373;SDS011;60349;64.132;-21.820;2023-02-08T13:06:14;53.35;;;29.02;;
72373;SDS011;60349;64.132;-21.820;2023-02-08T13:11:22;52.15;;;28.17;;
72373;SDS011;60349;64.132;-21.820;2023-02-08T13:13:55;47.55;;;25.38;;
72373;SDS011;60349;64.132;-21.820;2023-02-08T13:16:24;43.33;;;22.92;;
72373;SDS011;60349;64.132;-21.820;2023-02-08T13:21:21;38.55;;;20.35;;
72373;SDS011;60349;64.132;-21.820;2023-02-08T13:23:49;31.90;;;16.40;;
72373;SDS011;60349;64.132;-21.820;2023-02-08T13:28:45;27.08;;;14.95;;
72373;SDS011;60349;64.132;-21.820;2023-02-08T13:31:13;24.75;;;12.85;;
72373;SDS011;60349;64.132;-21.820;2023-02-08T13:33:44;30.77;;;15.50;;
72373;SDS011;60349;64.132;-21.820;2023-02-08T13:36:20;27.77;;;13.15;;
72373;SDS011;60349;64.132;-21.820;2023-02-08T13:38:47;24.23;;;13.57;;
72373;SDS011;60349;64.132;-21.820;2023-02-08T13:41:18;28.20;;;15.48;;
72373;SDS011;60349;64.132;-21.820;2023-02-08T13:43:49;26.98;;;14.25;;
72373;SDS011;60349;64.132;-21.820;2023-02-08T13:46:16;22.55;;;12.70;;
72373;SDS011;60349;64.132;-21.820;2023-02-08T13:56:36;24.83;;;11.13;;
72373;SDS011;60349;64.132;-21.820;2023-02-08T13:59:22;17.77;;;9.50;;
72373;SDS011;60349;64.132;-21.820;2023-02-08T14:04:37;21.00;;;9.10;;
72373;SDS011;60349;64.132;-21.820;2023-02-08T14:07:05;30.20;;;16.17;;
72373;SDS011;60349;64.132;-21.820;2023-02-08T14:12:03;24.85;;;13.30;;
72373;SDS011;60349;64.132;-21.820;2023-02-08T14:14:30;24.20;;;12.55;;
72373;SDS011;60349;64.132;-21.820;2023-02-08T14:19:29;25.92;;;12.43;;
72373;SDS011;60349;64.132;-21.820;2023-02-08T14:27:03;38.05;;;18.05;;
72373;SDS011;60349;64.132;-21.820;2023-02-08T14:29:30;37.72;;;18.63;;
72373;SDS011;60349;64.132;-21.820;2023-02-08T14:31:57;37.42;;;18.73;;
72373;SDS011;60349;64.132;-21.820;2023-02-08T14:34:27;41.55;;;20.65;;
72373;SDS011;60349;64.132;-21.820;2023-02-08T14:37:43;39.75;;;19.17;;
72373;SDS011;60349;64.132;-21.820;2023-02-08T14:39:45;36.30;;;18.58;;
72373;SDS011;60349;64.132;-21.820;2023-02-08T14:42:15;34.35;;;17.55;;
72373;SDS011;60349;64.132;-21.820;2023-02-08T14:45:00;33.90;;;16.52;;
72373;SDS011;60349;64.132;-21.820;2023-02-08T14:50:00;32.35;;;14.88;;
72373;SDS011;60349;64.132;-21.820;2023-02-08T14:54:58;32.38;;;14.63;;
72373;SDS011;60349;64.132;-21.820;2023-02-08T14:57:31;44.05;;;22.48;;
72373;SDS011;60349;64.132;-21.820;2023-02-08T15:00:06;40.03;;;19.83;;
72373;SDS011;60349;64.132;-21.820;2023-02-08T15:02:33;40.90;;;19.10;;
72373;SDS011;60349;64.132;-21.820;2023-02-08T15:05:00;45.42;;;20.63;;
72373;SDS011;60349;64.132;-21.820;2023-02-08T15:09:52;56.42;;;26.20;;
72373;SDS011;60349;64.132;-21.820;2023-02-08T15:12:26;49.35;;;22.92;;
72373;SDS011;60349;64.132;-21.820;2023-02-08T15:14:54;42.25;;;20.85;;
72373;SDS011;60349;64.132;-21.820;2023-02-08T15:17:35;47.22;;;20.98;;
72373;SDS011;60349;64.132;-21.820;2023-02-08T15:20:03;47.28;;;23.02;;
72373;SDS011;60349;64.132;-21.820;2023-02-08T15:22:31;51.88;;;23.25;;
72373;SDS011;60349;64.132;-21.820;2023-02-08T15:24:59;55.17;;;26.38;;
72373;SDS011;60349;64.132;-21.820;2023-02-08T15:27:27;54.80;;;27.10;;
72373;SDS011;60349;64.132;-21.820;2023-02-08T15:29:53;58.42;;;29.25;;
72373;SDS011;60349;64.132;-21.820;2023-02-08T15:32:20;58.35;;;28.75;;
72373;SDS011;60349;64.132;-21.820;2023-02-08T15:37:19;51.42;;;25.42;;
72373;SDS011;60349;64.132;-21.820;2023-02-08T15:39:50;49.42;;;25.42;;
72373;SDS011;60349;64.132;-21.820;2023-02-08T15:42:21;45.83;;;23.05;;
72373;SDS011;60349;64.132;-21.820;2023-02-08T15:44:47;40.40;;;21.15;;
72373;SDS011;60349;64.132;-21.820;2023-02-08T15:47:15;42.25;;;21.80;;
72373;SDS011;60349;64.132;-21.820;2023-02-08T15:49:42;48.63;;;23.00;;
72373;SDS011;60349;64.132;-21.820;2023-02-08T15:52:17;44.75;;;21.85;;
72373;SDS011;60349;64.132;-21.820;2023-02-08T15:54:44;37.45;;;18.42;;
72373;SDS011;60349;64.132;-21.820;2023-02-08T15:57:32;35.22;;;18.13;;
72373;SDS011;60349;64.132;-21.820;2023-02-08T15:59:59;33.55;;;16.95;;
72373;SDS011;60349;64.132;-21.820;2023-02-08T16:02:27;31.45;;;16.52;;
72373;SDS011;60349;64.132;-21.820;2023-02-08T16:04:53;34.75;;;17.15;;
72373;SDS011;60349;64.132;-21.820;2023-02-08T16:09:53;29.88;;;15.05;;
72373;SDS011;60349;64.132;-21.820;2023-02-08T16:12:20;30.58;;;16.17;;
72373;SDS011;60349;64.132;-21.820;2023-02-08T16:14:47;30.15;;;16.48;;
72373;SDS011;60349;64.132;-21.820;2023-02-08T16:20:20;31.23;;;17.13;;
72373;SDS011;60349;64.132;-21.820;2023-02-08T16:23:02;32.95;;;17.92;;
72373;SDS011;60349;64.132;-21.820;2023-02-08T16:27:58;91.43;;;46.95;;
72373;SDS011;60349;64.132;-21.820;2023-02-08T16:30:24;82.60;;;43.45;;
72373;SDS011;60349;64.132;-21.820;2023-02-08T16:32:51;91.53;;;46.50;;
72373;SDS011;60349;64.132;-21.820;2023-02-08T16:35:25;79.60;;;42.40;;
72373;SDS011;60349;64.132;-21.820;2023-02-08T16:37:54;79.85;;;40.25;;
72373;SDS011;60349;64.132;-21.820;2023-02-08T16:45:40;81.03;;;40.67;;
72373;SDS011;60349;64.132;-21.820;2023-02-08T16:48:26;63.90;;;33.85;;
72373;SDS011;60349;64.132;-21.820;2023-02-08T16:50:55;59.00;;;28.90;;
72373;SDS011;60349;64.132;-21.820;2023-02-08T16:53:21;49.30;;;25.60;;
72373;SDS011;60349;64.132;-21.820;2023-02-08T16:55:48;44.67;;;23.63;;
72373;SDS011;60349;64.132;-21.820;2023-02-08T16:58:14;37.85;;;19.70;;
72373;SDS011;60349;64.132;-21.820;2023-02-08T17:00:40;35.85;;;18.17;;
72373;SDS011;60349;64.132;-21.820;2023-02-08T17:03:06;33.80;;;17.90;;